Terminal Aerodrome Forecast
Issued by NWS Chicago, IL

Home | Current Version | Previous Version | Graphics & Text | Print | Product List | Glossary On
Versions: 1 2 3 4 5 6 7 8 9 10 11 12 13 14 15 16 17 18 19 20 21 22 23 24 25 26 27 28 29 30 31
000
FTUS43 KLOT 270500
TAFRFD
TAF
KRFD 270527Z 2706/2806 00000KT 5SM BR BKN150
     FM270900 27003KT 2SM BR BCFG FEW007
     FM271300 29009KT P6SM SCT070
     FM271500 30012G19KT P6SM SCT040
     FM271700 31018G28KT P6SM BKN040 PROB30 2717/2720 -SHRA
     FM280100 33011KT P6SM BKN040=

USA.gov is the U.S. government's official web portal to all federal, state and local government web resources and services.